sensor_id;sensor_type;location;lat;lon;timestamp;P1;durP1;ratioP1;P2;durP2;ratioP2
8333;SDS011;4204;43.004;23.052;2022-09-04T00:00:20;4.80;;;3.73;;
8333;SDS011;4204;43.004;23.052;2022-09-04T00:02:51;5.17;;;3.80;;
8333;SDS011;4204;43.004;23.052;2022-09-04T00:05:32;5.00;;;3.63;;
8333;SDS011;4204;43.004;23.052;2022-09-04T00:08:07;5.27;;;3.83;;
8333;SDS011;4204;43.004;23.052;2022-09-04T00:10:51;5.20;;;3.97;;
8333;SDS011;4204;43.004;23.052;2022-09-04T00:13:23;4.37;;;3.73;;
8333;SDS011;4204;43.004;23.052;2022-09-04T00:15:55;7.13;;;4.03;;
8333;SDS011;4204;43.004;23.052;2022-09-04T00:18:29;5.43;;;3.70;;
8333;SDS011;4204;43.004;23.052;2022-09-04T00:21:04;7.37;;;3.63;;
8333;SDS011;4204;43.004;23.052;2022-09-04T00:23:37;6.60;;;4.33;;
8333;SDS011;4204;43.004;23.052;2022-09-04T00:26:11;6.27;;;4.37;;
8333;SDS011;4204;43.004;23.052;2022-09-04T00:28:46;5.47;;;3.80;;
8333;SDS011;4204;43.004;23.052;2022-09-04T00:31:19;5.90;;;4.00;;
8333;SDS011;4204;43.004;23.052;2022-09-04T00:33:54;5.70;;;4.23;;
8333;SDS011;4204;43.004;23.052;2022-09-04T00:36:34;5.77;;;4.40;;
8333;SDS011;4204;43.004;23.052;2022-09-04T00:39:07;10.47;;;4.00;;
8333;SDS011;4204;43.004;23.052;2022-09-04T00:41:41;6.57;;;4.33;;
8333;SDS011;4204;43.004;23.052;2022-09-04T00:47:31;8.87;;;4.53;;
8333;SDS011;4204;43.004;23.052;2022-09-04T00:50:26;5.27;;;4.20;;
8333;SDS011;4204;43.004;23.052;2022-09-04T00:53:09;5.57;;;4.00;;
8333;SDS011;4204;43.004;23.052;2022-09-04T00:55:53;4.47;;;3.60;;
8333;SDS011;4204;43.004;23.052;2022-09-04T00:58:38;5.13;;;4.00;;
8333;SDS011;4204;43.004;23.052;2022-09-04T01:01:18;4.47;;;3.80;;
8333;SDS011;4204;43.004;23.052;2022-09-04T01:03:55;5.03;;;3.77;;
8333;SDS011;4204;43.004;23.052;2022-09-04T01:06:40;5.47;;;4.00;;
8333;SDS011;4204;43.004;23.052;2022-09-04T01:12:26;5.60;;;4.20;;
8333;SDS011;4204;43.004;23.052;2022-09-04T01:15:04;5.60;;;4.07;;
8333;SDS011;4204;43.004;23.052;2022-09-04T01:17:40;5.03;;;3.80;;
8333;SDS011;4204;43.004;23.052;2022-09-04T01:20:19;5.43;;;3.67;;
8333;SDS011;4204;43.004;23.052;2022-09-04T01:22:57;6.10;;;4.17;;
8333;SDS011;4204;43.004;23.052;2022-09-04T01:25:49;7.87;;;4.17;;
8333;SDS011;4204;43.004;23.052;2022-09-04T01:28:25;5.97;;;3.90;;
8333;SDS011;4204;43.004;23.052;2022-09-04T01:30:59;6.53;;;4.13;;
8333;SDS011;4204;43.004;23.052;2022-09-04T01:33:35;4.27;;;3.67;;
8333;SDS011;4204;43.004;23.052;2022-09-04T01:36:13;6.10;;;3.43;;
8333;SDS011;4204;43.004;23.052;2022-09-04T01:38:51;5.77;;;4.00;;
8333;SDS011;4204;43.004;23.052;2022-09-04T01:41:24;5.67;;;4.33;;
8333;SDS011;4204;43.004;23.052;2022-09-04T01:43:55;5.93;;;4.17;;
8333;SDS011;4204;43.004;23.052;2022-09-04T01:46:29;5.97;;;4.20;;
8333;SDS011;4204;43.004;23.052;2022-09-04T01:49:07;6.80;;;3.70;;
8333;SDS011;4204;43.004;23.052;2022-09-04T01:51:43;7.97;;;4.20;;
8333;SDS011;4204;43.004;23.052;2022-09-04T01:54:23;10.80;;;4.07;;
8333;SDS011;4204;43.004;23.052;2022-09-04T01:57:09;5.10;;;3.70;;
8333;SDS011;4204;43.004;23.052;2022-09-04T01:59:53;6.80;;;3.97;;
8333;SDS011;4204;43.004;23.052;2022-09-04T02:02:32;5.90;;;3.90;;
8333;SDS011;4204;43.004;23.052;2022-09-04T02:05:09;5.77;;;3.90;;
8333;SDS011;4204;43.004;23.052;2022-09-04T02:07:44;5.70;;;4.03;;
8333;SDS011;4204;43.004;23.052;2022-09-04T02:10:17;5.70;;;3.60;;
8333;SDS011;4204;43.004;23.052;2022-09-04T02:13:00;6.07;;;3.97;;
8333;SDS011;4204;43.004;23.052;2022-09-04T02:15:36;5.53;;;4.33;;
8333;SDS011;4204;43.004;23.052;2022-09-04T02:18:12;5.77;;;3.97;;
8333;SDS011;4204;43.004;23.052;2022-09-04T02:20:51;5.90;;;3.93;;
8333;SDS011;4204;43.004;23.052;2022-09-04T02:23:27;5.50;;;3.70;;
8333;SDS011;4204;43.004;23.052;2022-09-04T02:26:02;5.53;;;3.63;;
8333;SDS011;4204;43.004;23.052;2022-09-04T02:28:41;7.80;;;4.40;;
8333;SDS011;4204;43.004;23.052;2022-09-04T02:31:18;6.73;;;3.80;;
8333;SDS011;4204;43.004;23.052;2022-09-04T02:33:57;3.87;;;3.43;;
8333;SDS011;4204;43.004;23.052;2022-09-04T02:36:33;5.60;;;4.07;;
8333;SDS011;4204;43.004;23.052;2022-09-04T02:39:11;4.50;;;3.60;;
8333;SDS011;4204;43.004;23.052;2022-09-04T02:41:48;5.73;;;4.17;;
8333;SDS011;4204;43.004;23.052;2022-09-04T02:44:26;6.10;;;3.53;;
8333;SDS011;4204;43.004;23.052;2022-09-04T02:47:05;6.13;;;3.90;;
8333;SDS011;4204;43.004;23.052;2022-09-04T02:49:46;5.97;;;4.43;;
8333;SDS011;4204;43.004;23.052;2022-09-04T02:52:32;5.83;;;3.73;;
8333;SDS011;4204;43.004;23.052;2022-09-04T02:55:18;5.90;;;3.73;;
8333;SDS011;4204;43.004;23.052;2022-09-04T02:57:55;7.50;;;3.93;;
8333;SDS011;4204;43.004;23.052;2022-09-04T03:00:35;5.60;;;3.90;;
8333;SDS011;4204;43.004;23.052;2022-09-04T03:03:10;6.03;;;4.20;;
8333;SDS011;4204;43.004;23.052;2022-09-04T03:05:45;5.47;;;3.67;;
8333;SDS011;4204;43.004;23.052;2022-09-04T03:08:17;6.03;;;4.13;;
8333;SDS011;4204;43.004;23.052;2022-09-04T03:10:51;6.47;;;3.67;;
8333;SDS011;4204;43.004;23.052;2022-09-04T03:13:25;7.20;;;4.40;;
8333;SDS011;4204;43.004;23.052;2022-09-04T03:16:00;5.43;;;3.80;;
8333;SDS011;4204;43.004;23.052;2022-09-04T03:18:50;5.27;;;3.47;;
8333;SDS011;4204;43.004;23.052;2022-09-04T03:21:26;8.20;;;4.07;;
8333;SDS011;4204;43.004;23.052;2022-09-04T03:24:02;5.13;;;3.57;;
8333;SDS011;4204;43.004;23.052;2022-09-04T03:26:34;4.63;;;3.87;;
8333;SDS011;4204;43.004;23.052;2022-09-04T03:29:04;5.53;;;3.63;;
8333;SDS011;4204;43.004;23.052;2022-09-04T03:31:45;5.30;;;3.53;;
8333;SDS011;4204;43.004;23.052;2022-09-04T03:34:26;7.30;;;4.47;;
8333;SDS011;4204;43.004;23.052;2022-09-04T03:37:06;5.77;;;4.00;;
8333;SDS011;4204;43.004;23.052;2022-09-04T03:39:47;5.27;;;3.70;;
8333;SDS011;4204;43.004;23.052;2022-09-04T03:42:28;5.10;;;3.83;;
8333;SDS011;4204;43.004;23.052;2022-09-04T03:45:09;5.47;;;4.00;;
8333;SDS011;4204;43.004;23.052;2022-09-04T03:47:48;5.97;;;3.90;;
8333;SDS011;4204;43.004;23.052;2022-09-04T03:50:27;6.23;;;4.40;;
8333;SDS011;4204;43.004;23.052;2022-09-04T03:53:03;7.73;;;4.30;;
8333;SDS011;4204;43.004;23.052;2022-09-04T03:55:46;5.17;;;4.03;;
8333;SDS011;4204;43.004;23.052;2022-09-04T03:58:33;6.77;;;4.50;;
8333;SDS011;4204;43.004;23.052;2022-09-04T04:01:05;6.13;;;4.43;;
8333;SDS011;4204;43.004;23.052;2022-09-04T04:03:48;7.17;;;4.50;;
8333;SDS011;4204;43.004;23.052;2022-09-04T04:06:25;5.70;;;3.93;;
8333;SDS011;4204;43.004;23.052;2022-09-04T04:12:10;5.63;;;3.73;;
8333;SDS011;4204;43.004;23.052;2022-09-04T04:14:58;8.57;;;4.67;;
8333;SDS011;4204;43.004;23.052;2022-09-04T04:20:42;4.60;;;3.93;;
8333;SDS011;4204;43.004;23.052;2022-09-04T04:23:21;5.33;;;4.10;;
8333;SDS011;4204;43.004;23.052;2022-09-04T04:26:24;9.07;;;4.57;;
8333;SDS011;4204;43.004;23.052;2022-09-04T04:29:09;6.57;;;4.47;;
8333;SDS011;4204;43.004;23.052;2022-09-04T04:31:52;5.93;;;4.07;;
8333;SDS011;4204;43.004;23.052;2022-09-04T04:34:39;6.63;;;4.10;;
8333;SDS011;4204;43.004;23.052;2022-09-04T04:37:21;5.90;;;4.57;;
8333;SDS011;4204;43.004;23.052;2022-09-04T04:39:58;7.00;;;4.47;;
8333;SDS011;4204;43.004;23.052;2022-09-04T04:42:34;7.40;;;5.30;;
8333;SDS011;4204;43.004;23.052;2022-09-04T04:45:14;6.30;;;4.60;;
8333;SDS011;4204;43.004;23.052;2022-09-04T04:48:11;5.67;;;4.23;;
8333;SDS011;4204;43.004;23.052;2022-09-04T04:50:58;6.50;;;3.93;;
8333;SDS011;4204;43.004;23.052;2022-09-04T04:53:38;5.60;;;4.37;;
8333;SDS011;4204;43.004;23.052;2022-09-04T04:56:13;6.53;;;4.10;;
8333;SDS011;4204;43.004;23.052;2022-09-04T04:58:51;7.93;;;4.13;;
8333;SDS011;4204;43.004;23.052;2022-09-04T05:01:37;8.63;;;4.70;;
8333;SDS011;4204;43.004;23.052;2022-09-04T05:04:12;5.93;;;4.00;;
8333;SDS011;4204;43.004;23.052;2022-09-04T05:06:50;5.73;;;4.30;;
8333;SDS011;4204;43.004;23.052;2022-09-04T05:09:27;6.40;;;5.00;;
8333;SDS011;4204;43.004;23.052;2022-09-04T05:12:05;7.30;;;5.00;;
8333;SDS011;4204;43.004;23.052;2022-09-04T05:14:41;6.83;;;4.70;;
8333;SDS011;4204;43.004;23.052;2022-09-04T05:17:19;8.23;;;5.97;;
8333;SDS011;4204;43.004;23.052;2022-09-04T05:19:55;9.03;;;5.90;;
8333;SDS011;4204;43.004;23.052;2022-09-04T05:22:41;7.93;;;5.60;;
8333;SDS011;4204;43.004;23.052;2022-09-04T05:25:15;7.57;;;5.50;;
8333;SDS011;4204;43.004;23.052;2022-09-04T05:27:51;7.80;;;5.43;;
8333;SDS011;4204;43.004;23.052;2022-09-04T05:30:31;8.27;;;5.83;;
8333;SDS011;4204;43.004;23.052;2022-09-04T05:33:11;6.73;;;5.20;;
8333;SDS011;4204;43.004;23.052;2022-09-04T05:35:47;7.37;;;5.40;;
8333;SDS011;4204;43.004;23.052;2022-09-04T05:38:19;6.97;;;4.80;;
8333;SDS011;4204;43.004;23.052;2022-09-04T05:41:00;7.47;;;4.50;;
8333;SDS011;4204;43.004;23.052;2022-09-04T05:43:45;5.67;;;4.73;;
8333;SDS011;4204;43.004;23.052;2022-09-04T05:46:30;8.07;;;4.70;;
8333;SDS011;4204;43.004;23.052;2022-09-04T05:49:11;7.10;;;4.53;;
8333;SDS011;4204;43.004;23.052;2022-09-04T05:51:49;6.63;;;4.30;;
8333;SDS011;4204;43.004;23.052;2022-09-04T05:57:36;5.50;;;4.57;;
8333;SDS011;4204;43.004;23.052;2022-09-04T06:00:11;5.43;;;4.37;;
8333;SDS011;4204;43.004;23.052;2022-09-04T06:02:47;6.27;;;4.20;;
8333;SDS011;4204;43.004;23.052;2022-09-04T06:05:42;8.03;;;4.60;;
8333;SDS011;4204;43.004;23.052;2022-09-04T06:08:27;5.80;;;4.90;;
8333;SDS011;4204;43.004;23.052;2022-09-04T06:11:22;4.70;;;4.13;;
8333;SDS011;4204;43.004;23.052;2022-09-04T06:14:15;6.60;;;4.50;;
8333;SDS011;4204;43.004;23.052;2022-09-04T06:16:56;4.37;;;3.77;;
8333;SDS011;4204;43.004;23.052;2022-09-04T06:19:36;5.20;;;4.07;;
8333;SDS011;4204;43.004;23.052;2022-09-04T06:28:13;4.53;;;3.63;;
8333;SDS011;4204;43.004;23.052;2022-09-04T06:30:57;4.83;;;4.10;;
8333;SDS011;4204;43.004;23.052;2022-09-04T06:33:42;4.77;;;3.97;;
8333;SDS011;4204;43.004;23.052;2022-09-04T06:36:32;4.10;;;3.70;;
8333;SDS011;4204;43.004;23.052;2022-09-04T06:39:15;7.10;;;4.23;;
8333;SDS011;4204;43.004;23.052;2022-09-04T06:42:01;4.53;;;3.93;;
8333;SDS011;4204;43.004;23.052;2022-09-04T06:44:45;4.70;;;3.80;;
8333;SDS011;4204;43.004;23.052;2022-09-04T06:47:34;4.07;;;3.27;;
8333;SDS011;4204;43.004;23.052;2022-09-04T06:50:14;4.30;;;3.57;;
8333;SDS011;4204;43.004;23.052;2022-09-04T06:52:54;5.87;;;3.50;;
8333;SDS011;4204;43.004;23.052;2022-09-04T07:32:58;5.20;;;4.07;;
8333;SDS011;4204;43.004;23.052;2022-09-04T07:35:33;3.63;;;2.90;;
8333;SDS011;4204;43.004;23.052;2022-09-04T07:38:07;4.80;;;3.60;;
8333;SDS011;4204;43.004;23.052;2022-09-04T07:40:42;6.00;;;3.90;;
8333;SDS011;4204;43.004;23.052;2022-09-04T07:43:16;4.07;;;3.67;;
8333;SDS011;4204;43.004;23.052;2022-09-04T07:45:51;4.63;;;4.00;;
8333;SDS011;4204;43.004;23.052;2022-09-04T07:48:29;8.50;;;6.43;;
8333;SDS011;4204;43.004;23.052;2022-09-04T07:51:05;6.97;;;5.80;;
8333;SDS011;4204;43.004;23.052;2022-09-04T07:53:40;4.30;;;3.90;;
8333;SDS011;4204;43.004;23.052;2022-09-04T07:56:35;5.07;;;4.30;;
8333;SDS011;4204;43.004;23.052;2022-09-04T07:59:28;5.50;;;4.43;;
8333;SDS011;4204;43.004;23.052;2022-09-04T08:02:15;4.20;;;3.80;;
8333;SDS011;4204;43.004;23.052;2022-09-04T08:05:05;8.03;;;7.10;;
8333;SDS011;4204;43.004;23.052;2022-09-04T08:08:13;5.33;;;4.23;;
8333;SDS011;4204;43.004;23.052;2022-09-04T08:11:14;4.63;;;3.90;;
8333;SDS011;4204;43.004;23.052;2022-09-04T08:14:12;3.97;;;3.33;;
8333;SDS011;4204;43.004;23.052;2022-09-04T08:16:49;4.37;;;3.77;;
8333;SDS011;4204;43.004;23.052;2022-09-04T08:19:35;4.83;;;3.97;;
8333;SDS011;4204;43.004;23.052;2022-09-04T08:22:15;5.57;;;4.20;;
8333;SDS011;4204;43.004;23.052;2022-09-04T08:24:58;4.30;;;3.90;;
8333;SDS011;4204;43.004;23.052;2022-09-04T08:27:54;4.37;;;3.67;;
8333;SDS011;4204;43.004;23.052;2022-09-04T08:30:34;4.33;;;3.93;;
8333;SDS011;4204;43.004;23.052;2022-09-04T08:33:18;25.80;;;9.60;;
8333;SDS011;4204;43.004;23.052;2022-09-04T08:36:04;5.67;;;4.43;;
8333;SDS011;4204;43.004;23.052;2022-09-04T08:38:42;5.10;;;3.67;;
8333;SDS011;4204;43.004;23.052;2022-09-04T08:41:33;4.20;;;3.13;;
8333;SDS011;4204;43.004;23.052;2022-09-04T08:45:04;4.23;;;3.53;;
8333;SDS011;4204;43.004;23.052;2022-09-04T08:54:24;5.40;;;4.70;;
8333;SDS011;4204;43.004;23.052;2022-09-04T09:00:20;4.83;;;4.20;;
8333;SDS011;4204;43.004;23.052;2022-09-04T09:03:08;9.50;;;5.20;;
8333;SDS011;4204;43.004;23.052;2022-09-04T09:12:25;4.77;;;4.27;;
8333;SDS011;4204;43.004;23.052;2022-09-04T09:18:26;4.70;;;3.93;;
8333;SDS011;4204;43.004;23.052;2022-09-04T09:21:05;4.90;;;4.27;;
8333;SDS011;4204;43.004;23.052;2022-09-04T09:23:43;4.67;;;4.00;;
8333;SDS011;4204;43.004;23.052;2022-09-04T09:26:33;5.87;;;4.57;;
8333;SDS011;4204;43.004;23.052;2022-09-04T09:32:12;5.07;;;4.57;;
8333;SDS011;4204;43.004;23.052;2022-09-04T09:38:05;6.73;;;4.77;;
8333;SDS011;4204;43.004;23.052;2022-09-04T09:44:03;15.93;;;8.57;;
8333;SDS011;4204;43.004;23.052;2022-09-04T09:47:17;7.90;;;5.70;;
8333;SDS011;4204;43.004;23.052;2022-09-04T10:05:55;6.60;;;4.63;;
8333;SDS011;4204;43.004;23.052;2022-09-04T10:12:16;8.00;;;4.80;;
8333;SDS011;4204;43.004;23.052;2022-09-04T10:15:15;4.77;;;4.27;;
8333;SDS011;4204;43.004;23.052;2022-09-04T10:18:16;13.50;;;4.87;;
8333;SDS011;4204;43.004;23.052;2022-09-04T10:27:14;8.70;;;4.53;;
8333;SDS011;4204;43.004;23.052;2022-09-04T10:29:59;5.90;;;3.97;;
8333;SDS011;4204;43.004;23.052;2022-09-04T10:32:35;10.70;;;4.87;;
8333;SDS011;4204;43.004;23.052;2022-09-04T10:35:20;6.00;;;4.77;;
8333;SDS011;4204;43.004;23.052;2022-09-04T10:37:52;5.57;;;4.37;;
8333;SDS011;4204;43.004;23.052;2022-09-04T10:40:40;4.63;;;4.10;;
8333;SDS011;4204;43.004;23.052;2022-09-04T10:43:28;4.93;;;4.23;;
8333;SDS011;4204;43.004;23.052;2022-09-04T10:46:07;10.67;;;6.80;;
8333;SDS011;4204;43.004;23.052;2022-09-04T10:48:40;10.30;;;6.50;;
8333;SDS011;4204;43.004;23.052;2022-09-04T10:51:38;6.83;;;4.37;;
8333;SDS011;4204;43.004;23.052;2022-09-04T10:57:42;5.10;;;4.03;;
8333;SDS011;4204;43.004;23.052;2022-09-04T11:00:33;5.27;;;3.93;;
8333;SDS011;4204;43.004;23.052;2022-09-04T11:09:36;4.43;;;3.90;;
8333;SDS011;4204;43.004;23.052;2022-09-04T11:12:28;5.47;;;4.57;;
8333;SDS011;4204;43.004;23.052;2022-09-04T11:15:20;7.70;;;4.60;;
8333;SDS011;4204;43.004;23.052;2022-09-04T11:21:26;6.43;;;4.07;;
8333;SDS011;4204;43.004;23.052;2022-09-04T11:24:34;5.57;;;3.90;;
8333;SDS011;4204;43.004;23.052;2022-09-04T11:30:32;4.17;;;3.77;;
8333;SDS011;4204;43.004;23.052;2022-09-04T11:33:26;4.93;;;4.53;;
8333;SDS011;4204;43.004;23.052;2022-09-04T11:36:21;5.53;;;3.93;;
8333;SDS011;4204;43.004;23.052;2022-09-04T11:39:15;4.37;;;3.97;;
8333;SDS011;4204;43.004;23.052;2022-09-04T11:42:12;5.30;;;4.80;;
8333;SDS011;4204;43.004;23.052;2022-09-04T11:45:06;5.73;;;3.97;;
8333;SDS011;4204;43.004;23.052;2022-09-04T11:51:16;4.00;;;3.43;;
8333;SDS011;4204;43.004;23.052;2022-09-04T11:54:13;4.70;;;3.90;;
8333;SDS011;4204;43.004;23.052;2022-09-04T11:57:04;4.03;;;3.63;;
8333;SDS011;4204;43.004;23.052;2022-09-04T12:02:44;4.80;;;4.17;;
8333;SDS011;4204;43.004;23.052;2022-09-04T12:05:28;4.97;;;3.60;;
8333;SDS011;4204;43.004;23.052;2022-09-04T12:08:14;6.53;;;3.40;;
8333;SDS011;4204;43.004;23.052;2022-09-04T12:11:06;3.47;;;3.17;;
8333;SDS011;4204;43.004;23.052;2022-09-04T12:13:47;4.27;;;3.63;;
8333;SDS011;4204;43.004;23.052;2022-09-04T12:16:50;7.03;;;4.57;;
8333;SDS011;4204;43.004;23.052;2022-09-04T12:32:25;5.20;;;3.20;;
8333;SDS011;4204;43.004;23.052;2022-09-04T12:41:15;3.37;;;3.03;;
8333;SDS011;4204;43.004;23.052;2022-09-04T12:43:50;6.60;;;4.10;;
8333;SDS011;4204;43.004;23.052;2022-09-04T12:46:34;4.33;;;2.70;;
8333;SDS011;4204;43.004;23.052;2022-09-04T12:49:23;3.90;;;3.50;;
8333;SDS011;4204;43.004;23.052;2022-09-04T12:52:11;3.50;;;3.17;;
8333;SDS011;4204;43.004;23.052;2022-09-04T12:54:47;5.60;;;4.50;;
8333;SDS011;4204;43.004;23.052;2022-09-04T12:57:28;3.13;;;2.87;;
8333;SDS011;4204;43.004;23.052;2022-09-04T13:00:04;5.43;;;3.20;;
8333;SDS011;4204;43.004;23.052;2022-09-04T13:02:48;3.33;;;3.00;;
8333;SDS011;4204;43.004;23.052;2022-09-04T13:05:30;3.73;;;3.10;;
8333;SDS011;4204;43.004;23.052;2022-09-04T13:08:14;4.00;;;3.50;;
8333;SDS011;4204;43.004;23.052;2022-09-04T13:10:54;4.00;;;2.90;;
8333;SDS011;4204;43.004;23.052;2022-09-04T13:13:32;7.00;;;4.97;;
8333;SDS011;4204;43.004;23.052;2022-09-04T13:16:12;7.70;;;4.03;;
8333;SDS011;4204;43.004;23.052;2022-09-04T13:18:55;6.00;;;3.20;;
8333;SDS011;4204;43.004;23.052;2022-09-04T13:21:40;4.07;;;3.00;;
8333;SDS011;4204;43.004;23.052;2022-09-04T13:24:27;6.03;;;3.40;;
8333;SDS011;4204;43.004;23.052;2022-09-04T13:27:11;5.73;;;4.27;;
8333;SDS011;4204;43.004;23.052;2022-09-04T13:29:58;6.63;;;3.50;;
8333;SDS011;4204;43.004;23.052;2022-09-04T13:38:43;8.83;;;4.97;;
8333;SDS011;4204;43.004;23.052;2022-09-04T13:41:48;4.87;;;4.30;;
8333;SDS011;4204;43.004;23.052;2022-09-04T13:47:34;6.77;;;4.67;;
8333;SDS011;4204;43.004;23.052;2022-09-04T13:50:14;5.70;;;4.13;;
8333;SDS011;4204;43.004;23.052;2022-09-04T13:52:47;10.43;;;4.97;;
8333;SDS011;4204;43.004;23.052;2022-09-04T13:55:21;5.87;;;4.60;;
8333;SDS011;4204;43.004;23.052;2022-09-04T13:57:52;5.77;;;4.83;;
8333;SDS011;4204;43.004;23.052;2022-09-04T14:00:28;4.70;;;4.03;;
8333;SDS011;4204;43.004;23.052;2022-09-04T14:02:58;8.43;;;4.67;;
8333;SDS011;4204;43.004;23.052;2022-09-04T14:05:30;4.80;;;4.13;;
8333;SDS011;4204;43.004;23.052;2022-09-04T14:08:03;6.70;;;4.70;;
8333;SDS011;4204;43.004;23.052;2022-09-04T14:10:54;5.20;;;4.50;;
8333;SDS011;4204;43.004;23.052;2022-09-04T14:13:33;5.47;;;4.70;;
8333;SDS011;4204;43.004;23.052;2022-09-04T14:16:12;4.57;;;3.90;;
8333;SDS011;4204;43.004;23.052;2022-09-04T14:18:47;6.47;;;3.40;;
8333;SDS011;4204;43.004;23.052;2022-09-04T14:21:28;4.77;;;4.23;;
8333;SDS011;4204;43.004;23.052;2022-09-04T14:24:07;4.27;;;3.87;;
8333;SDS011;4204;43.004;23.052;2022-09-04T14:26:40;7.97;;;4.40;;
8333;SDS011;4204;43.004;23.052;2022-09-04T14:29:18;4.20;;;3.80;;
8333;SDS011;4204;43.004;23.052;2022-09-04T14:31:55;9.47;;;5.30;;
8333;SDS011;4204;43.004;23.052;2022-09-04T14:34:38;4.70;;;4.07;;
8333;SDS011;4204;43.004;23.052;2022-09-04T14:37:18;3.70;;;3.40;;
8333;SDS011;4204;43.004;23.052;2022-09-04T14:40:02;5.63;;;4.00;;
8333;SDS011;4204;43.004;23.052;2022-09-04T14:42:38;6.30;;;3.93;;
8333;SDS011;4204;43.004;23.052;2022-09-04T14:45:14;5.73;;;3.77;;
8333;SDS011;4204;43.004;23.052;2022-09-04T14:47:55;5.60;;;3.83;;
8333;SDS011;4204;43.004;23.052;2022-09-04T14:50:29;3.50;;;3.20;;
8333;SDS011;4204;43.004;23.052;2022-09-04T14:53:00;3.70;;;3.40;;
8333;SDS011;4204;43.004;23.052;2022-09-04T14:55:30;4.20;;;3.63;;
8333;SDS011;4204;43.004;23.052;2022-09-04T14:58:02;3.70;;;2.93;;
8333;SDS011;4204;43.004;23.052;2022-09-04T15:00:50;6.43;;;3.73;;
8333;SDS011;4204;43.004;23.052;2022-09-04T15:03:27;4.20;;;3.40;;
8333;SDS011;4204;43.004;23.052;2022-09-04T15:06:03;4.17;;;3.50;;
8333;SDS011;4204;43.004;23.052;2022-09-04T15:08:41;3.80;;;3.40;;
8333;SDS011;4204;43.004;23.052;2022-09-04T15:11:23;4.03;;;3.30;;
8333;SDS011;4204;43.004;23.052;2022-09-04T15:13:53;4.07;;;3.57;;
8333;SDS011;4204;43.004;23.052;2022-09-04T15:16:39;3.30;;;3.00;;
8333;SDS011;4204;43.004;23.052;2022-09-04T15:19:20;4.00;;;3.50;;
8333;SDS011;4204;43.004;23.052;2022-09-04T15:22:07;3.03;;;2.63;;
8333;SDS011;4204;43.004;23.052;2022-09-04T15:24:48;3.57;;;3.00;;
8333;SDS011;4204;43.004;23.052;2022-09-04T15:27:21;5.43;;;2.93;;
8333;SDS011;4204;43.004;23.052;2022-09-04T15:30:01;4.17;;;2.70;;
8333;SDS011;4204;43.004;23.052;2022-09-04T15:32:33;3.30;;;3.00;;
8333;SDS011;4204;43.004;23.052;2022-09-04T15:35:07;3.57;;;2.90;;
8333;SDS011;4204;43.004;23.052;2022-09-04T15:37:41;3.20;;;2.90;;
8333;SDS011;4204;43.004;23.052;2022-09-04T15:40:13;3.67;;;3.07;;
8333;SDS011;4204;43.004;23.052;2022-09-04T15:42:53;3.30;;;2.87;;
8333;SDS011;4204;43.004;23.052;2022-09-04T15:45:29;2.90;;;2.70;;
8333;SDS011;4204;43.004;23.052;2022-09-04T15:51:12;3.10;;;2.80;;
8333;SDS011;4204;43.004;23.052;2022-09-04T15:53:49;3.37;;;2.83;;
8333;SDS011;4204;43.004;23.052;2022-09-04T15:56:33;3.43;;;2.80;;
8333;SDS011;4204;43.004;23.052;2022-09-04T15:59:07;3.00;;;2.77;;
8333;SDS011;4204;43.004;23.052;2022-09-04T16:01:42;3.37;;;3.07;;
8333;SDS011;4204;43.004;23.052;2022-09-04T16:04:18;2.73;;;2.53;;
8333;SDS011;4204;43.004;23.052;2022-09-04T16:06:53;3.57;;;2.83;;
8333;SDS011;4204;43.004;23.052;2022-09-04T16:09:32;3.23;;;2.93;;
8333;SDS011;4204;43.004;23.052;2022-09-04T16:12:09;3.37;;;3.00;;
8333;SDS011;4204;43.004;23.052;2022-09-04T16:14:42;2.87;;;2.67;;
8333;SDS011;4204;43.004;23.052;2022-09-04T16:17:15;3.70;;;2.83;;
8333;SDS011;4204;43.004;23.052;2022-09-04T16:19:50;2.93;;;2.70;;
8333;SDS011;4204;43.004;23.052;2022-09-04T16:22:27;3.30;;;2.87;;
8333;SDS011;4204;43.004;23.052;2022-09-04T16:25:05;2.90;;;2.70;;
8333;SDS011;4204;43.004;23.052;2022-09-04T16:27:37;2.93;;;2.57;;
8333;SDS011;4204;43.004;23.052;2022-09-04T16:30:23;3.20;;;2.70;;
8333;SDS011;4204;43.004;23.052;2022-09-04T16:32:55;2.73;;;2.40;;
8333;SDS011;4204;43.004;23.052;2022-09-04T16:35:23;3.30;;;2.87;;
8333;SDS011;4204;43.004;23.052;2022-09-04T16:37:57;3.43;;;3.00;;
8333;SDS011;4204;43.004;23.052;2022-09-04T16:40:34;3.37;;;2.90;;
8333;SDS011;4204;43.004;23.052;2022-09-04T16:43:09;2.60;;;2.40;;
8333;SDS011;4204;43.004;23.052;2022-09-04T16:45:45;3.20;;;2.87;;
8333;SDS011;4204;43.004;23.052;2022-09-04T16:48:19;2.63;;;2.43;;
8333;SDS011;4204;43.004;23.052;2022-09-04T16:50:53;3.10;;;2.80;;
8333;SDS011;4204;43.004;23.052;2022-09-04T16:53:34;2.93;;;2.73;;
8333;SDS011;4204;43.004;23.052;2022-09-04T16:56:10;4.73;;;3.00;;
8333;SDS011;4204;43.004;23.052;2022-09-04T16:58:47;3.07;;;2.60;;
8333;SDS011;4204;43.004;23.052;2022-09-04T17:01:20;3.63;;;3.10;;
8333;SDS011;4204;43.004;23.052;2022-09-04T17:03:56;4.00;;;2.73;;
8333;SDS011;4204;43.004;23.052;2022-09-04T17:06:40;3.00;;;2.67;;
8333;SDS011;4204;43.004;23.052;2022-09-04T17:09:31;3.07;;;2.70;;
8333;SDS011;4204;43.004;23.052;2022-09-04T17:15:15;4.90;;;3.00;;
8333;SDS011;4204;43.004;23.052;2022-09-04T17:17:49;3.30;;;3.00;;
8333;SDS011;4204;43.004;23.052;2022-09-04T17:20:20;3.10;;;2.77;;
8333;SDS011;4204;43.004;23.052;2022-09-04T17:22:55;3.10;;;2.80;;
8333;SDS011;4204;43.004;23.052;2022-09-04T17:25:38;2.70;;;2.50;;
8333;SDS011;4204;43.004;23.052;2022-09-04T17:28:18;3.33;;;3.00;;
8333;SDS011;4204;43.004;23.052;2022-09-04T17:30:55;2.83;;;2.60;;
8333;SDS011;4204;43.004;23.052;2022-09-04T17:33:32;4.27;;;2.70;;
8333;SDS011;4204;43.004;23.052;2022-09-04T17:36:09;3.43;;;2.70;;
8333;SDS011;4204;43.004;23.052;2022-09-04T17:38:43;3.23;;;2.77;;
8333;SDS011;4204;43.004;23.052;2022-09-04T17:41:20;2.73;;;2.53;;
8333;SDS011;4204;43.004;23.052;2022-09-04T17:46:46;3.03;;;2.73;;
8333;SDS011;4204;43.004;23.052;2022-09-04T17:49:23;3.63;;;3.07;;
8333;SDS011;4204;43.004;23.052;2022-09-04T17:51:55;3.30;;;2.83;;
8333;SDS011;4204;43.004;23.052;2022-09-04T17:54:24;2.93;;;2.43;;
8333;SDS011;4204;43.004;23.052;2022-09-04T17:56:57;2.80;;;2.50;;
8333;SDS011;4204;43.004;23.052;2022-09-04T17:59:30;3.30;;;3.00;;
8333;SDS011;4204;43.004;23.052;2022-09-04T18:02:04;4.60;;;2.77;;
8333;SDS011;4204;43.004;23.052;2022-09-04T18:04:42;5.67;;;2.77;;
8333;SDS011;4204;43.004;23.052;2022-09-04T18:07:20;2.67;;;2.47;;
8333;SDS011;4204;43.004;23.052;2022-09-04T18:10:02;3.43;;;2.50;;
8333;SDS011;4204;43.004;23.052;2022-09-04T18:12:40;4.67;;;2.87;;
8333;SDS011;4204;43.004;23.052;2022-09-04T18:15:13;4.13;;;2.83;;
8333;SDS011;4204;43.004;23.052;2022-09-04T18:17:47;3.40;;;2.97;;
8333;SDS011;4204;43.004;23.052;2022-09-04T18:20:26;3.50;;;3.20;;
8333;SDS011;4204;43.004;23.052;2022-09-04T18:23:14;4.10;;;2.93;;
8333;SDS011;4204;43.004;23.052;2022-09-04T18:25:51;3.47;;;3.00;;
8333;SDS011;4204;43.004;23.052;2022-09-04T18:28:27;3.90;;;3.27;;
8333;SDS011;4204;43.004;23.052;2022-09-04T18:31:03;4.20;;;2.83;;
8333;SDS011;4204;43.004;23.052;2022-09-04T18:33:40;2.67;;;2.47;;
8333;SDS011;4204;43.004;23.052;2022-09-04T18:36:12;3.20;;;2.67;;
8333;SDS011;4204;43.004;23.052;2022-09-04T18:38:53;4.40;;;3.20;;
8333;SDS011;4204;43.004;23.052;2022-09-04T18:41:28;3.40;;;2.70;;
8333;SDS011;4204;43.004;23.052;2022-09-04T18:44:02;4.07;;;3.00;;
8333;SDS011;4204;43.004;23.052;2022-09-04T18:46:35;4.40;;;3.67;;
8333;SDS011;4204;43.004;23.052;2022-09-04T18:49:04;3.63;;;2.80;;
8333;SDS011;4204;43.004;23.052;2022-09-04T18:51:37;3.00;;;2.70;;
8333;SDS011;4204;43.004;23.052;2022-09-04T18:54:18;4.63;;;2.70;;
8333;SDS011;4204;43.004;23.052;2022-09-04T18:56:51;3.03;;;2.73;;
8333;SDS011;4204;43.004;23.052;2022-09-04T18:59:23;4.87;;;2.83;;
8333;SDS011;4204;43.004;23.052;2022-09-04T19:01:56;2.83;;;2.47;;
8333;SDS011;4204;43.004;23.052;2022-09-04T19:04:33;3.40;;;2.83;;
8333;SDS011;4204;43.004;23.052;2022-09-04T19:07:08;3.30;;;3.00;;
8333;SDS011;4204;43.004;23.052;2022-09-04T19:09:48;4.40;;;3.60;;
8333;SDS011;4204;43.004;23.052;2022-09-04T19:12:24;3.57;;;3.10;;